Aviation Digital Data Service (ADDS)

Output produced by METARs form (1206 UTC 28 August 2016)
found at http://www.aviationweather.gov/adds/metars/
 
KSBY 281154Z 02005KT 10SM CLR 23/21 A3022 RMK AO2 SLP235 T02280211 10228 20194 53013 $
KSBY 281139Z 2812/2912 05003KT 5SM BR SCT010 
     FM281300 07009KT P6SM SCT025 
     FM281600 06008KT P6SM SCT040